罗盘
风向 的 风向 的 风向 到 风向 070° Aurillac Airport 15/33
风: 5 kt, 2 beaufort

1 kt

5 kt
改变
0 1.000 2.000 3.000 4.000 5.000
CAVOK
METAR LFLW 170500Z AUTO 07005KT 050V120 CAVOK 13/13 Q1012

METAR Aurillac Airport - LFLW/AUR

Aurillac Airport是Aurillac,法国中的中型机场。 该机场有一条跑道: 15/33. 该领域的国际民航组织标志是LFLW 它的国际航空运输协会代码是AUR.

这份报告是针对2022年8月17日 07:00, 当地时间在Aurillac Airport进行的。

机场观察

风向为070°,速度为5 kt。 风向在050°和120°之间变化。

天气为CAVOK。这意味着在5.000 ft或MSA(最低安全高度)以下(以较高者为准)以下没有云。这也意味着没有观测到积雨云或高耸的积云,可见度为10 km 或者更多或更高。此外,不会有雾,降雨或其他重要天气。

温度和风寒是13 °C。 露点为13 °C,相对湿度为100%。 海平面上的气压为1012 hPa (QNH)。

白天

今天,太阳从06:54升起,在20:54降落。 这适用于Aurillac Airport,世界夏令时可能有所不同。 当地时间与世界标准时间之间的时差为+2 小时。 夏令时目前正在进行中。

公司介绍

在这个机场,你可以找到飞行俱乐部。 本场上唯一已知的公司是Aéroclub du Cantal。

体会

到Vliegles.nl去找飞行课程,跳伞和其他飞行体验。 浏览页面,了解Aurillac Airport附近所有可用的活动。 你也可以使用搜索功能来寻找你所在地附近的特定飞行课程、跳伞或其他飞行体验。

跑道

Id 标题 侧风 逆风 侧风 %
15/33 150°-330° 5 kt 98 %

逆风成分最大的方向会被突出显示,并用于横风计算。 这并不一定意味着这个方向在使用。

温度 & 天气

温度 13 °C
露点 13 °C
相对湿度 100%
Kp-index 3  

白天

日出
06:54
中午
13:54
日落
20:54 (13h 33m)

小工具

你想在你的网站上有一个关于Aurillac Airport的当前航空天气(METAR)的小部件吗?

</> 显示HTML代码

我们和第三方通过cookies跟踪您在我们网站上的上网行为。如果您继续,我们认为您同意我们的cookie政策。 了解更多